createdAt,value
2019-06-27T00:01:12.685Z,24.20
2019-06-27T00:03:40.952Z,24.20
2019-06-27T00:06:09.228Z,24.20
2019-06-27T00:08:37.512Z,24.20
2019-06-27T00:11:06.223Z,24.30
2019-06-27T00:13:34.788Z,24.40
2019-06-27T00:16:03.078Z,24.30
2019-06-27T00:18:31.390Z,24.20
2019-06-27T00:21:02.689Z,24.30
2019-06-27T00:23:31.283Z,24.30
2019-06-27T00:25:59.867Z,24.40
2019-06-27T00:28:28.136Z,24.60
2019-06-27T00:30:56.404Z,24.80
2019-06-27T00:33:24.655Z,24.90
2019-06-27T00:35:52.932Z,24.90
2019-06-27T00:38:21.191Z,24.70
2019-06-27T00:40:49.472Z,24.40
2019-06-27T00:43:17.730Z,24.30
2019-06-27T00:45:46.008Z,24.20
2019-06-27T00:48:14.267Z,24.00
2019-06-27T00:50:42.916Z,23.90
2019-06-27T00:53:11.175Z,23.90
2019-06-27T00:55:39.793Z,24.00
2019-06-27T00:58:08.075Z,23.80
2019-06-27T01:00:36.352Z,23.70
2019-06-27T01:03:04.610Z,23.70
2019-06-27T01:05:32.890Z,23.90
2019-06-27T01:08:01.157Z,24.00
2019-06-27T01:10:29.467Z,24.10
2019-06-27T01:12:57.788Z,24.00
2019-06-27T01:15:26.067Z,23.90
2019-06-27T01:17:54.595Z,23.70
2019-06-27T01:20:22.876Z,23.50
2019-06-27T01:22:51.136Z,23.50
2019-06-27T01:25:19.752Z,23.40
2019-06-27T01:27:48.031Z,23.30
2019-06-27T01:30:16.599Z,23.30
2019-06-27T01:32:44.859Z,23.30
2019-06-27T01:35:13.122Z,23.30
2019-06-27T01:37:41.756Z,23.30
2019-06-27T01:40:11.671Z,23.30
2019-06-27T01:42:39.948Z,23.30
2019-06-27T01:45:18.811Z,23.40
2019-06-27T01:47:47.079Z,23.40
2019-06-27T01:50:15.639Z,23.40
2019-06-27T01:52:44.220Z,23.30
2019-06-27T01:55:12.807Z,23.50
2019-06-27T01:57:46.725Z,23.60
2019-06-27T02:00:11.715Z,23.50
2019-06-27T02:02:40.000Z,23.60
2019-06-27T02:05:08.335Z,23.70
2019-06-27T02:07:36.963Z,23.70
2019-06-27T02:10:08.411Z,23.60
2019-06-27T02:12:36.683Z,23.40
2019-06-27T02:15:09.785Z,23.30
2019-06-27T02:17:38.053Z,23.20
2019-06-27T02:20:09.020Z,23.10
2019-06-27T02:22:37.360Z,23.10
2019-06-27T02:25:06.387Z,23.10
2019-06-27T02:27:34.660Z,23.20
2019-06-27T02:30:02.918Z,23.10
2019-06-27T02:32:31.278Z,23.20
2019-06-27T02:34:59.628Z,23.20
2019-06-27T02:37:28.273Z,23.20
2019-06-27T02:39:56.534Z,23.20
2019-06-27T02:42:24.805Z,23.10
2019-06-27T02:44:54.234Z,22.90
2019-06-27T02:47:22.513Z,22.90
2019-06-27T02:49:51.169Z,22.90
2019-06-27T02:52:19.507Z,22.80
2019-06-27T02:54:47.886Z,22.70
2019-06-27T02:57:16.213Z,22.70
2019-06-27T02:59:44.800Z,22.60
2019-06-27T03:02:13.375Z,22.40
2019-06-27T03:04:41.985Z,22.60
2019-06-27T03:07:10.668Z,22.70
2019-06-27T03:09:38.939Z,22.80
2019-06-27T03:12:07.545Z,22.60
2019-06-27T03:14:35.818Z,22.40
2019-06-27T03:17:04.086Z,22.20
2019-06-27T03:19:32.458Z,22.20
2019-06-27T03:22:05.399Z,22.30
2019-06-27T03:24:30.763Z,22.30
2019-06-27T03:26:59.024Z,22.50
2019-06-27T03:29:27.628Z,22.50
2019-06-27T03:31:55.896Z,22.30
2019-06-27T03:34:24.199Z,22.40
2019-06-27T03:36:52.869Z,22.50
2019-06-27T03:39:21.153Z,22.40
2019-06-27T03:41:49.844Z,22.40
2019-06-27T03:44:18.189Z,22.50
2019-06-27T03:46:46.781Z,22.60
2019-06-27T03:49:15.052Z,22.60
2019-06-27T03:51:43.650Z,22.50
2019-06-27T03:54:12.288Z,22.40
2019-06-27T03:56:40.596Z,22.30
2019-06-27T03:59:13.009Z,22.40
2019-06-27T04:01:39.195Z,22.70
2019-06-27T04:04:07.477Z,23.00
2019-06-27T04:06:36.030Z,23.40
2019-06-27T04:09:05.283Z,23.60
2019-06-27T04:11:33.881Z,23.80
2019-06-27T04:14:02.200Z,24.00
2019-06-27T04:16:30.530Z,24.20
2019-06-27T04:18:58.855Z,24.30
2019-06-27T04:21:27.490Z,24.40
2019-06-27T04:23:55.757Z,24.50
2019-06-27T04:26:24.044Z,24.50
2019-06-27T04:28:52.343Z,24.60
2019-06-27T04:31:20.613Z,24.60
2019-06-27T04:33:48.876Z,24.70
2019-06-27T04:36:17.448Z,24.80
2019-06-27T04:38:46.039Z,24.80
2019-06-27T04:41:14.317Z,24.90
2019-06-27T04:43:42.726Z,24.90
2019-06-27T04:46:11.287Z,24.90
2019-06-27T04:48:39.564Z,25.00
2019-06-27T04:51:07.845Z,25.00
2019-06-27T04:53:36.112Z,25.00
2019-06-27T04:56:04.384Z,25.00
2019-06-27T04:58:32.974Z,25.10
2019-06-27T05:01:01.247Z,25.10
2019-06-27T05:03:29.839Z,25.10
2019-06-27T05:05:58.425Z,25.20
2019-06-27T05:08:26.767Z,25.20
2019-06-27T05:10:55.410Z,25.20
2019-06-27T05:13:24.014Z,25.20
2019-06-27T05:15:52.716Z,25.30
2019-06-27T05:18:21.071Z,25.30
2019-06-27T05:20:49.636Z,25.30
2019-06-27T05:23:17.952Z,25.30
2019-06-27T05:25:47.504Z,25.30
2019-06-27T05:28:15.792Z,25.30
2019-06-27T05:30:44.059Z,25.40
2019-06-27T05:33:12.328Z,25.40
2019-06-27T05:35:40.588Z,25.40
2019-06-27T05:38:08.851Z,25.40
2019-06-27T05:40:37.117Z,25.50
2019-06-27T05:43:05.386Z,25.50
2019-06-27T05:45:33.639Z,25.50
2019-06-27T05:48:01.912Z,25.50
2019-06-27T05:50:30.507Z,25.50
2019-06-27T05:52:58.817Z,25.50
2019-06-27T05:55:27.147Z,25.50
2019-06-27T05:57:55.419Z,25.50
2019-06-27T06:00:28.691Z,25.60
2019-06-27T06:02:54.003Z,25.60
2019-06-27T06:05:22.265Z,25.60
2019-06-27T06:07:50.546Z,25.60
2019-06-27T06:10:18.800Z,25.60
2019-06-27T06:12:47.375Z,25.60
2019-06-27T06:15:15.924Z,25.70
2019-06-27T06:17:44.631Z,25.70
2019-06-27T06:20:12.892Z,25.70
2019-06-27T06:22:41.487Z,25.70
2019-06-27T06:25:10.076Z,25.70
2019-06-27T06:27:38.343Z,25.70
2019-06-27T06:30:07.255Z,25.70
2019-06-27T06:32:35.539Z,25.70
2019-06-27T06:35:06.071Z,25.70
2019-06-27T06:37:34.331Z,25.70
2019-06-27T06:40:02.896Z,25.70
2019-06-27T06:42:31.501Z,25.70
2019-06-27T06:44:59.775Z,25.80
2019-06-27T06:47:28.038Z,25.80
2019-06-27T06:49:56.662Z,25.80
2019-06-27T06:52:24.983Z,25.80
2019-06-27T06:54:53.258Z,25.80
2019-06-27T06:57:21.788Z,25.80
2019-06-27T06:59:50.057Z,25.80
2019-06-27T07:02:18.738Z,25.80
2019-06-27T07:04:47.544Z,25.80
2019-06-27T07:07:16.100Z,25.80
2019-06-27T07:09:44.366Z,25.80
2019-06-27T07:12:12.980Z,25.80
2019-06-27T07:14:41.256Z,25.80
2019-06-27T07:17:09.848Z,25.80
2019-06-27T07:19:38.112Z,25.90
2019-06-27T07:22:06.379Z,25.90
2019-06-27T07:24:34.651Z,25.90
2019-06-27T07:27:02.913Z,25.90
2019-06-27T07:29:31.190Z,25.90
2019-06-27T07:31:59.434Z,25.90
2019-06-27T07:34:27.707Z,25.90
2019-06-27T07:36:56.263Z,25.90
2019-06-27T07:39:24.881Z,25.90
2019-06-27T07:41:53.139Z,25.90
2019-06-27T07:44:21.434Z,25.90
2019-06-27T07:46:49.687Z,25.90
2019-06-27T07:49:17.943Z,25.90
2019-06-27T07:51:46.228Z,25.90
2019-06-27T07:54:14.555Z,25.90
2019-06-27T07:56:46.087Z,25.90
2019-06-27T07:59:12.803Z,25.90
2019-06-27T08:01:41.382Z,25.90
2019-06-27T08:04:09.651Z,26.00
2019-06-27T08:06:37.987Z,26.00
2019-06-27T08:09:06.263Z,26.00
2019-06-27T08:11:34.587Z,26.00
2019-06-27T08:14:02.871Z,26.00
2019-06-27T08:16:31.237Z,26.00
2019-06-27T08:18:59.552Z,26.00
2019-06-27T08:21:27.819Z,26.00
2019-06-27T08:23:56.076Z,26.00
2019-06-27T08:26:24.343Z,26.00
2019-06-27T08:28:52.960Z,26.00
2019-06-27T08:31:21.254Z,26.00
2019-06-27T08:33:49.578Z,26.00
2019-06-27T08:36:18.187Z,26.00
2019-06-27T08:38:46.792Z,26.00
2019-06-27T08:41:15.064Z,26.00
2019-06-27T08:43:43.346Z,26.00
2019-06-27T08:46:12.095Z,26.00
2019-06-27T08:48:40.386Z,26.00
2019-06-27T08:51:09.028Z,26.00
2019-06-27T08:53:37.330Z,26.00
2019-06-27T08:56:05.611Z,26.00
2019-06-27T08:58:34.127Z,26.00
2019-06-27T09:01:02.746Z,26.00
2019-06-27T09:03:31.398Z,26.00
2019-06-27T09:06:00.123Z,26.00
2019-06-27T09:08:28.647Z,26.00
2019-06-27T09:10:56.900Z,26.00
2019-06-27T09:13:25.186Z,26.00
2019-06-27T09:15:53.442Z,26.00
2019-06-27T09:18:21.717Z,26.00
2019-06-27T09:20:49.987Z,26.00
2019-06-27T09:23:18.263Z,26.10
2019-06-27T09:25:46.526Z,26.10
2019-06-27T09:28:15.128Z,26.00
2019-06-27T09:30:43.697Z,26.10
2019-06-27T09:33:12.260Z,26.00
2019-06-27T09:35:40.558Z,26.10
2019-06-27T09:38:09.009Z,26.00
2019-06-27T09:40:37.263Z,26.10
2019-06-27T09:43:05.887Z,26.10
2019-06-27T09:45:34.479Z,26.10
2019-06-27T09:48:02.775Z,26.10
2019-06-27T09:50:31.086Z,26.10
2019-06-27T09:52:59.363Z,26.10
2019-06-27T09:55:27.625Z,26.10
2019-06-27T09:57:56.159Z,26.10
2019-06-27T10:00:24.973Z,26.10
2019-06-27T10:02:53.532Z,26.10
2019-06-27T10:05:21.799Z,26.10
2019-06-27T10:07:50.931Z,26.10
2019-06-27T10:10:19.471Z,26.10
2019-06-27T10:12:48.075Z,26.10
2019-06-27T10:15:16.343Z,26.10
2019-06-27T10:17:44.599Z,26.10
2019-06-27T10:20:12.877Z,26.10
2019-06-27T10:22:41.210Z,26.10
2019-06-27T10:25:09.554Z,26.10
2019-06-27T10:27:38.177Z,26.10
2019-06-27T10:30:07.114Z,26.10
2019-06-27T10:32:35.449Z,26.10
2019-06-27T10:35:05.157Z,26.10
2019-06-27T10:37:33.443Z,26.10
2019-06-27T10:40:01.764Z,26.10
2019-06-27T10:42:30.380Z,26.10
2019-06-27T10:44:58.651Z,26.10
2019-06-27T10:47:26.917Z,26.10
2019-06-27T10:49:55.446Z,26.20
2019-06-27T10:52:23.710Z,26.20
2019-06-27T10:54:51.980Z,26.20
2019-06-27T10:57:20.315Z,26.20
2019-06-27T10:59:48.587Z,26.20
2019-06-27T11:02:16.847Z,26.20
2019-06-27T11:04:45.123Z,26.20
2019-06-27T11:07:13.386Z,26.20
2019-06-27T11:09:41.951Z,26.10
2019-06-27T11:12:10.204Z,26.20
2019-06-27T11:14:38.476Z,26.20
2019-06-27T11:17:07.096Z,26.20
2019-06-27T11:19:51.179Z,26.20
2019-06-27T11:22:05.355Z,26.20
2019-06-27T11:24:33.649Z,26.20
2019-06-27T11:27:01.949Z,26.20
2019-06-27T11:29:30.549Z,26.20
2019-06-27T11:31:59.138Z,26.20
2019-06-27T11:34:27.459Z,26.20
2019-06-27T11:36:56.071Z,26.20
2019-06-27T11:39:24.337Z,26.20
2019-06-27T11:41:52.940Z,26.20
2019-06-27T11:44:21.198Z,26.30
2019-06-27T11:46:49.468Z,26.20
2019-06-27T11:49:17.728Z,26.20
2019-06-27T11:51:45.995Z,26.20
2019-06-27T11:54:14.533Z,26.30
2019-06-27T11:56:42.869Z,26.30
2019-06-27T11:59:11.127Z,26.30
2019-06-27T12:01:39.435Z,26.30
2019-06-27T12:04:07.772Z,26.30
2019-06-27T12:06:36.404Z,26.30
2019-06-27T12:09:06.019Z,26.20
2019-06-27T12:11:34.543Z,26.20
2019-06-27T12:14:02.907Z,26.20
2019-06-27T12:16:31.244Z,26.20
2019-06-27T12:18:59.577Z,26.20
2019-06-27T12:21:27.862Z,26.20
2019-06-27T12:23:56.407Z,26.20
2019-06-27T12:26:24.678Z,26.30
2019-06-27T12:28:53.304Z,26.30
2019-06-27T12:31:21.876Z,26.30
2019-06-27T12:34:05.708Z,26.30
2019-06-27T12:36:20.484Z,26.30
2019-06-27T12:38:48.787Z,26.20
2019-06-27T12:41:17.343Z,26.30
2019-06-27T12:43:45.619Z,26.30
2019-06-27T12:46:13.871Z,26.30
2019-06-27T12:48:42.144Z,26.20
2019-06-27T12:51:10.772Z,26.10
2019-06-27T12:53:39.035Z,26.00
2019-06-27T12:56:07.325Z,26.10
2019-06-27T12:58:35.915Z,26.10
2019-06-27T13:01:04.469Z,26.10
2019-06-27T13:03:32.740Z,26.00
2019-06-27T13:06:01.008Z,26.00
2019-06-27T13:08:29.279Z,25.90
2019-06-27T13:10:57.536Z,25.90
2019-06-27T13:13:26.189Z,26.00
2019-06-27T13:15:54.438Z,25.90
2019-06-27T13:18:22.708Z,26.00
2019-06-27T13:20:57.984Z,26.00
2019-06-27T13:23:21.637Z,26.00
2019-06-27T13:25:50.227Z,25.90
2019-06-27T13:28:18.557Z,25.70
2019-06-27T13:30:46.819Z,25.60
2019-06-27T13:33:15.082Z,25.60
2019-06-27T13:35:43.649Z,25.60
2019-06-27T13:38:11.921Z,25.50
2019-06-27T13:40:40.418Z,25.40
2019-06-27T13:43:09.125Z,25.30
2019-06-27T13:45:37.527Z,25.30
2019-06-27T13:48:05.868Z,25.20
2019-06-27T13:50:34.146Z,25.20
2019-06-27T13:53:02.470Z,25.30
2019-06-27T13:55:31.091Z,25.50
2019-06-27T13:57:59.424Z,25.70
2019-06-27T14:00:44.928Z,25.80
2019-06-27T14:03:13.255Z,25.80
2019-06-27T14:05:41.589Z,25.90
2019-06-27T14:08:10.254Z,25.90
2019-06-27T14:10:38.532Z,25.90
2019-06-27T14:13:06.845Z,26.00
2019-06-27T14:15:35.531Z,26.00
2019-06-27T14:18:03.783Z,26.00
2019-06-27T14:20:32.407Z,26.00
2019-06-27T14:23:01.000Z,26.00
2019-06-27T14:25:29.279Z,26.00
2019-06-27T14:27:57.611Z,26.00
2019-06-27T14:30:26.240Z,26.00
2019-06-27T14:32:54.494Z,26.00
2019-06-27T14:35:22.784Z,26.10
2019-06-27T14:37:51.370Z,26.10
2019-06-27T14:40:21.405Z,26.00
2019-06-27T14:42:49.853Z,26.00
2019-06-27T14:45:18.848Z,26.00
2019-06-27T14:47:47.848Z,26.10
2019-06-27T14:50:16.125Z,26.10
2019-06-27T14:52:44.824Z,26.10
2019-06-27T14:55:13.152Z,26.10
2019-06-27T14:57:41.452Z,26.10
2019-06-27T15:00:11.175Z,26.10
2019-06-27T15:02:39.765Z,26.10
2019-06-27T15:05:09.264Z,26.10
2019-06-27T15:07:37.549Z,26.10
2019-06-27T15:10:06.633Z,26.10
2019-06-27T15:12:35.957Z,26.10
2019-06-27T15:15:06.127Z,26.10
2019-06-27T15:17:34.478Z,26.10
2019-06-27T15:20:03.523Z,26.10
2019-06-27T15:22:32.155Z,26.10
2019-06-27T15:25:00.441Z,26.10
2019-06-27T15:27:28.792Z,26.10
2019-06-27T15:29:57.412Z,26.10
2019-06-27T15:32:25.683Z,26.10
2019-06-27T15:34:54.226Z,26.10
2019-06-27T15:37:22.498Z,26.10
2019-06-27T15:39:51.119Z,26.10
2019-06-27T15:42:19.700Z,26.10
2019-06-27T15:44:48.282Z,26.10
2019-06-27T15:47:16.580Z,26.20
2019-06-27T15:49:45.154Z,26.20
2019-06-27T15:52:13.535Z,26.20
2019-06-27T15:54:41.860Z,26.20
2019-06-27T15:57:10.215Z,26.20
2019-06-27T15:59:38.468Z,26.20
2019-06-27T16:02:06.756Z,26.20
2019-06-27T16:04:35.087Z,26.20
2019-06-27T16:07:03.709Z,26.10
2019-06-27T16:09:32.273Z,26.10
2019-06-27T16:12:00.883Z,26.10
2019-06-27T16:14:29.139Z,26.10
2019-06-27T16:16:57.411Z,26.10
2019-06-27T16:19:26.004Z,26.20
2019-06-27T16:21:54.280Z,26.20
2019-06-27T16:24:22.543Z,26.20
2019-06-27T16:26:51.147Z,26.20
2019-06-27T16:29:19.400Z,26.20
2019-06-27T16:31:47.664Z,26.20
2019-06-27T16:34:15.966Z,26.20
2019-06-27T16:36:44.278Z,26.20
2019-06-27T16:39:12.554Z,26.20
2019-06-27T16:41:40.814Z,26.20
2019-06-27T16:44:09.387Z,26.20
2019-06-27T16:46:37.643Z,26.20
2019-06-27T16:49:05.920Z,26.10
2019-06-27T16:51:34.172Z,26.10
2019-06-27T16:54:02.815Z,26.20
2019-06-27T16:56:31.428Z,26.20
2019-06-27T16:59:00.092Z,26.20
2019-06-27T17:01:28.675Z,26.20
2019-06-27T17:03:57.043Z,26.20
2019-06-27T17:06:37.658Z,26.20
2019-06-27T17:08:55.979Z,26.20
2019-06-27T17:11:24.245Z,26.20
2019-06-27T17:13:52.523Z,26.20
2019-06-27T17:16:22.373Z,26.20
2019-06-27T17:18:50.880Z,26.20
2019-06-27T17:21:19.139Z,26.20
2019-06-27T17:23:47.449Z,26.20
2019-06-27T17:26:15.764Z,26.20
2019-06-27T17:28:44.024Z,26.20
2019-06-27T17:31:12.300Z,26.20
2019-06-27T17:33:40.569Z,26.20
2019-06-27T17:36:08.840Z,26.20
2019-06-27T17:38:37.623Z,26.20
2019-06-27T17:41:06.217Z,26.20
2019-06-27T17:43:34.475Z,26.30
2019-06-27T17:46:02.814Z,26.40
2019-06-27T17:48:31.347Z,26.40
2019-06-27T17:50:59.939Z,26.40
2019-06-27T17:53:28.551Z,26.50
2019-06-27T17:55:56.819Z,26.50
2019-06-27T17:58:25.401Z,26.40
2019-06-27T18:00:53.993Z,26.40
2019-06-27T18:03:22.580Z,26.40
2019-06-27T18:05:50.862Z,26.40
2019-06-27T18:08:19.200Z,26.40
2019-06-27T18:10:47.534Z,26.40
2019-06-27T18:13:15.796Z,26.40
2019-06-27T18:15:44.360Z,26.30
2019-06-27T18:18:12.621Z,26.30
2019-06-27T18:20:40.894Z,26.40
2019-06-27T18:23:09.156Z,26.40
2019-06-27T18:25:37.424Z,26.40
2019-06-27T18:28:05.961Z,26.40
2019-06-27T18:30:34.237Z,26.40
2019-06-27T18:33:02.820Z,26.30
2019-06-27T18:35:31.178Z,26.30
2019-06-27T18:37:59.500Z,26.30
2019-06-27T18:40:27.822Z,26.30
2019-06-27T18:42:56.094Z,26.30
2019-06-27T18:45:24.355Z,26.30
2019-06-27T18:47:52.699Z,26.30
2019-06-27T18:50:20.968Z,26.20
2019-06-27T18:52:49.227Z,26.30
2019-06-27T18:55:17.483Z,26.30
2019-06-27T18:57:45.760Z,26.30
2019-06-27T19:00:14.186Z,26.30
2019-06-27T19:02:42.464Z,26.30
2019-06-27T19:05:10.711Z,26.20
2019-06-27T19:07:45.304Z,26.20
2019-06-27T19:10:09.439Z,26.30
2019-06-27T19:12:38.007Z,26.20
2019-06-27T19:15:09.815Z,26.20
2019-06-27T19:17:38.570Z,26.20
2019-06-27T19:20:09.338Z,26.20
2019-06-27T19:22:55.430Z,26.20
2019-06-27T19:25:25.381Z,26.20
2019-06-27T19:27:54.006Z,26.20
2019-06-27T19:30:22.262Z,26.20
2019-06-27T19:32:50.531Z,26.20
2019-06-27T19:35:18.785Z,26.20
2019-06-27T19:38:00.973Z,26.20
2019-06-27T19:40:17.039Z,26.20
2019-06-27T19:42:45.649Z,26.20
2019-06-27T19:45:13.970Z,26.20
2019-06-27T19:47:42.301Z,26.20
2019-06-27T19:50:11.371Z,26.20
2019-06-27T19:52:39.647Z,26.20
2019-06-27T19:55:07.908Z,26.20
2019-06-27T19:57:36.203Z,26.20
2019-06-27T20:00:05.735Z,26.30
2019-06-27T20:02:34.199Z,26.20
2019-06-27T20:05:02.781Z,26.30
2019-06-27T20:07:31.373Z,26.30
2019-06-27T20:09:59.643Z,26.30
2019-06-27T20:12:27.905Z,26.30
2019-06-27T20:14:56.249Z,26.30
2019-06-27T20:17:24.863Z,26.30
2019-06-27T20:19:53.135Z,26.30
2019-06-27T20:22:21.476Z,26.30
2019-06-27T20:24:50.025Z,26.20
2019-06-27T20:27:18.291Z,26.20
2019-06-27T20:29:46.883Z,26.20
2019-06-27T20:32:15.137Z,26.20
2019-06-27T20:34:43.727Z,26.20
2019-06-27T20:37:12.308Z,26.30
2019-06-27T20:39:40.900Z,26.20
2019-06-27T20:42:09.499Z,26.20
2019-06-27T20:44:38.091Z,26.30
2019-06-27T20:47:06.424Z,26.20
2019-06-27T20:49:34.699Z,26.20
2019-06-27T20:52:02.959Z,26.20
2019-06-27T20:54:31.232Z,26.20
2019-06-27T20:56:59.791Z,26.20
2019-06-27T20:59:28.078Z,26.20
2019-06-27T21:01:56.342Z,26.20
2019-06-27T21:04:24.919Z,26.20
2019-06-27T21:06:53.505Z,26.20
2019-06-27T21:09:21.774Z,26.20
2019-06-27T21:11:50.359Z,26.20
2019-06-27T21:14:18.634Z,26.20
2019-06-27T21:16:46.904Z,26.20
2019-06-27T21:19:15.493Z,26.20
2019-06-27T21:21:43.767Z,26.20
2019-06-27T21:24:12.347Z,26.20
2019-06-27T21:26:40.615Z,26.20
2019-06-27T21:29:09.207Z,26.20
2019-06-27T21:31:37.479Z,26.20
2019-06-27T21:34:05.730Z,26.20
2019-06-27T21:36:34.009Z,26.20
2019-06-27T21:39:07.715Z,26.20
2019-06-27T21:41:32.256Z,26.10
2019-06-27T21:44:00.587Z,26.10
2019-06-27T21:46:29.181Z,26.20
2019-06-27T21:48:57.494Z,26.10
2019-06-27T21:51:26.089Z,26.10
2019-06-27T21:53:54.342Z,26.20
2019-06-27T21:56:22.611Z,26.10
2019-06-27T21:58:50.871Z,26.20
2019-06-27T22:01:19.142Z,26.20
2019-06-27T22:03:47.410Z,26.20
2019-06-27T22:06:15.693Z,26.20
2019-06-27T22:08:43.960Z,26.20
2019-06-27T22:11:12.488Z,26.10
2019-06-27T22:13:41.087Z,26.10
2019-06-27T22:16:09.511Z,26.10
2019-06-27T22:18:37.838Z,26.10
2019-06-27T22:21:06.415Z,26.10
2019-06-27T22:23:34.694Z,26.10
2019-06-27T22:26:02.958Z,26.10
2019-06-27T22:28:31.574Z,26.10
2019-06-27T22:30:59.858Z,26.20
2019-06-27T22:33:28.204Z,26.10
2019-06-27T22:35:56.800Z,26.10
2019-06-27T22:38:42.934Z,26.20
2019-06-27T22:41:29.621Z,26.20
2019-06-27T22:44:16.043Z,26.10
2019-06-27T22:47:02.044Z,26.10
2019-06-27T22:49:29.692Z,26.10
2019-06-27T22:52:15.770Z,26.10
2019-06-27T22:54:45.668Z,26.10
2019-06-27T22:57:13.939Z,26.00
2019-06-27T22:59:42.199Z,26.10
2019-06-27T23:02:10.471Z,26.10
2019-06-27T23:04:38.729Z,26.10
2019-06-27T23:07:07.031Z,26.10
2019-06-27T23:09:35.283Z,26.10
2019-06-27T23:12:03.551Z,26.10
2019-06-27T23:14:32.588Z,26.10
2019-06-27T23:17:01.215Z,26.10
2019-06-27T23:19:29.781Z,26.10
2019-06-27T23:21:58.089Z,26.10
2019-06-27T23:24:26.439Z,26.10
2019-06-27T23:26:54.690Z,26.10
2019-06-27T23:29:22.962Z,26.10
2019-06-27T23:31:51.223Z,26.10
2019-06-27T23:34:19.499Z,26.10
2019-06-27T23:36:48.047Z,26.10
2019-06-27T23:39:16.620Z,26.10
2019-06-27T23:41:44.877Z,26.10
2019-06-27T23:44:13.494Z,26.10
2019-06-27T23:46:42.431Z,26.10
2019-06-27T23:49:12.080Z,26.10
2019-06-27T23:51:40.633Z,26.10
2019-06-27T23:54:09.247Z,26.10
2019-06-27T23:56:37.988Z,26.10
2019-06-27T23:59:06.271Z,26.10
